Terminal Aerodrome Forecast
Issued by NWS

Home | Current Version | Previous Version | Text Only | Print | Product List | Glossary On
Versions: 1 2 3 4 5 6 7 8 9 10 11 12 13 14 15 16 17 18 19 20 21 22 23 24 25
000
FTUS46 KOTX 222328
TAFPUW
TAF
KPUW 222328Z 2300/2324 02011G15KT P6SM TSRA BKN070CB BKN100
     FM230200 02008G12KT P6SM VCTS SCT070CB BKN100
     FM230300 03003KT P6SM VCSH SCT060 BKN080
     FM230800 33005KT P6SM FEW070 BKN150
     FM231500 30006KT P6SM FEW050 BKN090
     FM231800 24008KT P6SM VCSH BKN090 BKN120=

USA.gov is the U.S. government's official web portal to all federal, state and local government web resources and services.